createdAt,value
2019-02-19T00:00:13.498Z,2.80
2019-02-19T00:01:19.233Z,2.89
2019-02-19T00:02:24.772Z,2.64
2019-02-19T00:03:30.753Z,2.71
2019-02-19T00:04:36.695Z,2.76
2019-02-19T00:05:42.632Z,2.60
2019-02-19T00:06:48.530Z,2.62
2019-02-19T00:07:54.463Z,2.67
2019-02-19T00:09:00.371Z,2.43
2019-02-19T00:10:05.599Z,2.25
2019-02-19T00:11:11.230Z,2.31
2019-02-19T00:12:17.138Z,2.25
2019-02-19T00:13:23.051Z,2.23
2019-02-19T00:14:28.986Z,2.26
2019-02-19T00:15:34.521Z,2.21
2019-02-19T00:16:40.424Z,2.17
2019-02-19T00:17:46.357Z,2.17
2019-02-19T00:18:52.257Z,2.17
2019-02-19T00:19:58.153Z,2.07
2019-02-19T00:21:04.066Z,1.98
2019-02-19T00:22:09.687Z,1.97
2019-02-19T00:23:15.566Z,2.08
2019-02-19T00:24:21.487Z,2.03
2019-02-19T00:25:27.822Z,1.90
2019-02-19T00:26:33.994Z,1.82
2019-02-19T00:27:39.907Z,1.72
2019-02-19T00:28:45.781Z,1.66
2019-02-19T00:29:51.649Z,1.59
2019-02-19T00:30:57.566Z,1.52
2019-02-19T00:32:03.505Z,1.51
2019-02-19T00:33:09.593Z,1.54
2019-02-19T00:34:15.533Z,1.52
2019-02-19T00:35:21.433Z,1.53
2019-02-19T00:36:27.356Z,1.60
2019-02-19T00:37:33.238Z,1.62
2019-02-19T00:38:39.136Z,1.57
2019-02-19T00:39:45.015Z,1.53
2019-02-19T00:40:50.934Z,1.49
2019-02-19T00:41:56.840Z,1.46
2019-02-19T00:43:02.746Z,1.43
2019-02-19T00:44:08.396Z,1.45
2019-02-19T00:45:16.784Z,1.54
2019-02-19T00:46:20.309Z,1.69
2019-02-19T00:47:26.385Z,1.70
2019-02-19T00:48:32.300Z,1.65
2019-02-19T00:49:38.269Z,1.56
2019-02-19T00:50:44.198Z,1.48
2019-02-19T00:51:50.139Z,1.41
2019-02-19T00:52:56.031Z,1.27
2019-02-19T00:54:01.924Z,1.33
2019-02-19T00:55:07.141Z,1.31
2019-02-19T00:56:13.054Z,1.30
2019-02-19T00:57:19.003Z,1.28
2019-02-19T00:58:24.958Z,1.29
2019-02-19T00:59:30.855Z,1.33
2019-02-19T01:00:36.766Z,1.28
2019-02-19T01:01:42.273Z,1.22
2019-02-19T01:02:47.824Z,1.14
2019-02-19T01:03:53.408Z,1.09
2019-02-19T01:04:59.370Z,1.00
2019-02-19T01:06:04.959Z,1.06
2019-02-19T01:07:10.849Z,0.99
2019-02-19T01:08:15.822Z,0.93
2019-02-19T01:09:21.389Z,0.93
2019-02-19T01:10:26.605Z,0.88
2019-02-19T01:11:32.510Z,0.87
2019-02-19T01:12:38.441Z,0.84
2019-02-19T01:13:44.388Z,0.88
2019-02-19T01:14:50.307Z,1.05
2019-02-19T01:15:55.889Z,1.21
2019-02-19T01:17:01.804Z,1.19
2019-02-19T01:18:07.023Z,1.33
2019-02-19T01:19:12.927Z,1.39
2019-02-19T01:20:18.904Z,1.37
2019-02-19T01:21:24.798Z,1.26
2019-02-19T01:22:30.760Z,1.12
2019-02-19T01:23:36.640Z,1.08
2019-02-19T01:24:42.542Z,1.15
2019-02-19T01:25:48.461Z,1.28
2019-02-19T01:26:54.394Z,1.27
2019-02-19T01:28:00.351Z,1.48
2019-02-19T01:29:06.922Z,1.71
2019-02-19T01:30:12.823Z,1.81
2019-02-19T01:31:18.730Z,1.86
2019-02-19T01:32:24.708Z,1.76
2019-02-19T01:33:30.582Z,1.58
2019-02-19T01:34:36.540Z,1.68
2019-02-19T01:35:43.044Z,1.54
2019-02-19T01:36:49.013Z,1.45
2019-02-19T01:37:54.940Z,1.37
2019-02-19T01:39:00.874Z,1.39
2019-02-19T01:40:06.093Z,1.36
2019-02-19T01:41:11.966Z,1.28
2019-02-19T01:42:17.924Z,1.23
2019-02-19T01:43:23.866Z,1.14
2019-02-19T01:44:29.747Z,0.96
2019-02-19T01:45:35.633Z,0.96
2019-02-19T01:46:41.753Z,1.08
2019-02-19T01:47:47.690Z,1.15
2019-02-19T01:48:53.633Z,1.10
2019-02-19T01:49:59.547Z,1.01
2019-02-19T01:51:05.450Z,1.05
2019-02-19T01:52:11.350Z,0.67
2019-02-19T01:53:17.301Z,0.51
2019-02-19T01:54:23.187Z,0.22
2019-02-19T01:55:29.103Z,0.06
2019-02-19T01:56:35.010Z,0.02
2019-02-19T01:57:40.951Z,0.11
2019-02-19T01:58:46.890Z,0.16
2019-02-19T01:59:52.806Z,0.39
2019-02-19T02:00:58.706Z,0.46
2019-02-19T02:02:04.240Z,0.61
2019-02-19T02:03:10.200Z,0.76
2019-02-19T02:04:16.075Z,0.73
2019-02-19T02:05:21.993Z,0.78
2019-02-19T02:06:27.929Z,0.65
2019-02-19T02:07:33.573Z,0.62
2019-02-19T02:08:39.447Z,0.49
2019-02-19T02:09:45.427Z,0.36
2019-02-19T02:10:51.322Z,0.29
2019-02-19T02:11:57.230Z,0.26
2019-02-19T02:13:03.199Z,0.33
2019-02-19T02:14:09.087Z,0.46
2019-02-19T02:15:14.982Z,0.84
2019-02-19T02:16:20.898Z,1.16
2019-02-19T02:17:26.778Z,1.26
2019-02-19T02:18:32.705Z,1.35
2019-02-19T02:19:38.276Z,1.23
2019-02-19T02:20:44.218Z,0.91
2019-02-19T02:21:50.098Z,0.45
2019-02-19T02:22:56.004Z,0.37
2019-02-19T02:24:01.905Z,0.33
2019-02-19T02:25:07.150Z,0.38
2019-02-19T02:26:13.072Z,0.42
2019-02-19T02:27:18.597Z,0.38
2019-02-19T02:28:24.543Z,0.61
2019-02-19T02:29:30.468Z,0.87
2019-02-19T02:30:36.374Z,1.07
2019-02-19T02:31:42.305Z,1.17
2019-02-19T02:32:48.350Z,1.24
2019-02-19T02:33:54.308Z,1.48
2019-02-19T02:35:00.307Z,1.39
2019-02-19T02:36:06.217Z,1.50
2019-02-19T02:37:12.148Z,1.40
2019-02-19T02:38:18.053Z,1.41
2019-02-19T02:39:23.995Z,1.00
2019-02-19T02:40:29.885Z,0.65
2019-02-19T02:41:35.795Z,0.56
2019-02-19T02:42:41.691Z,0.67
2019-02-19T02:43:47.631Z,0.78
2019-02-19T02:44:53.566Z,1.03
2019-02-19T02:45:59.488Z,1.19
2019-02-19T02:47:05.407Z,1.29
2019-02-19T02:48:11.385Z,1.32
2019-02-19T02:49:17.286Z,1.32
2019-02-19T02:50:23.188Z,1.33
2019-02-19T02:51:29.075Z,1.37
2019-02-19T02:52:34.968Z,1.38
2019-02-19T02:53:40.874Z,1.33
2019-02-19T02:54:46.752Z,1.23
2019-02-19T02:55:52.644Z,1.17
2019-02-19T02:56:58.547Z,1.09
2019-02-19T02:58:04.446Z,0.97
2019-02-19T02:59:10.391Z,0.79
2019-02-19T03:00:16.296Z,0.77
2019-02-19T03:01:22.227Z,0.66
2019-02-19T03:02:28.151Z,0.64
2019-02-19T03:03:34.164Z,0.69
2019-02-19T03:04:39.721Z,0.68
2019-02-19T03:05:57.577Z,0.65
2019-02-19T03:07:03.225Z,0.65
2019-02-19T03:08:09.187Z,0.61
2019-02-19T03:09:15.146Z,0.99
2019-02-19T03:10:21.062Z,1.24
2019-02-19T03:11:26.973Z,1.57
2019-02-19T03:12:32.894Z,1.96
2019-02-19T03:13:38.824Z,2.34
2019-02-19T03:14:44.706Z,2.64
2019-02-19T03:15:50.798Z,2.96
2019-02-19T03:16:56.863Z,3.09
2019-02-19T03:18:02.773Z,3.28
2019-02-19T03:19:08.785Z,3.51
2019-02-19T03:20:14.316Z,3.71
2019-02-19T03:21:19.930Z,3.68
2019-02-19T03:22:26.014Z,3.72
2019-02-19T03:23:33.644Z,3.75
2019-02-19T03:24:39.626Z,3.85
2019-02-19T03:25:45.652Z,3.93
2019-02-19T03:26:51.680Z,4.05
2019-02-19T03:27:57.733Z,4.09
2019-02-19T03:29:03.658Z,4.22
2019-02-19T03:30:08.946Z,4.27
2019-02-19T03:31:14.975Z,4.20
2019-02-19T03:32:20.895Z,4.11
2019-02-19T03:33:27.030Z,4.16
2019-02-19T03:34:33.109Z,4.34
2019-02-19T03:35:39.070Z,4.34
2019-02-19T03:36:45.523Z,4.24
2019-02-19T03:37:52.691Z,4.05
2019-02-19T03:38:58.709Z,3.99
2019-02-19T03:40:03.913Z,4.14
2019-02-19T03:41:09.867Z,4.10
2019-02-19T03:42:15.305Z,4.21
2019-02-19T03:43:21.239Z,4.12
2019-02-19T03:44:27.353Z,4.15
2019-02-19T03:45:33.414Z,4.08
2019-02-19T03:46:39.014Z,4.22
2019-02-19T03:47:45.101Z,4.16
2019-02-19T03:48:51.234Z,4.16
2019-02-19T03:49:57.202Z,4.06
2019-02-19T03:51:03.116Z,4.00
2019-02-19T03:52:09.213Z,4.01
2019-02-19T03:53:14.870Z,4.17
2019-02-19T03:54:20.775Z,4.19
2019-02-19T03:55:26.678Z,4.45
2019-02-19T03:56:32.588Z,4.31
2019-02-19T03:57:38.161Z,4.25
2019-02-19T03:58:43.752Z,4.39
2019-02-19T03:59:49.776Z,4.39
2019-02-19T04:00:55.571Z,4.53
2019-02-19T04:02:01.326Z,4.59
2019-02-19T04:03:07.362Z,4.67
2019-02-19T04:04:13.328Z,4.80
2019-02-19T04:05:19.389Z,4.69
2019-02-19T04:06:25.338Z,4.82
2019-02-19T04:07:30.948Z,4.75
2019-02-19T04:08:36.982Z,4.46
2019-02-19T04:09:43.027Z,4.45
2019-02-19T04:10:49.004Z,4.42
2019-02-19T04:11:54.917Z,4.43
2019-02-19T04:13:00.952Z,4.46
2019-02-19T04:14:06.978Z,4.57
2019-02-19T04:15:12.961Z,4.62
2019-02-19T04:16:21.252Z,4.42
2019-02-19T04:17:24.978Z,4.46
2019-02-19T04:18:31.008Z,4.51
2019-02-19T04:19:37.064Z,4.25
2019-02-19T04:20:43.519Z,4.23
2019-02-19T04:21:49.988Z,4.46
2019-02-19T04:22:55.948Z,4.40
2019-02-19T04:24:01.916Z,4.25
2019-02-19T04:25:07.498Z,4.12
2019-02-19T04:26:14.106Z,4.24
2019-02-19T04:27:19.349Z,4.22
2019-02-19T04:28:25.306Z,4.26
2019-02-19T04:29:30.948Z,4.31
2019-02-19T04:30:36.923Z,4.24
2019-02-19T04:31:42.976Z,4.23
2019-02-19T04:32:48.984Z,4.46
2019-02-19T04:33:55.023Z,4.58
2019-02-19T04:35:01.016Z,4.52
2019-02-19T04:36:07.029Z,4.57
2019-02-19T04:37:12.998Z,4.57
2019-02-19T04:38:19.113Z,4.49
2019-02-19T04:39:25.242Z,4.54
2019-02-19T04:40:31.140Z,4.42
2019-02-19T04:41:37.572Z,4.48
2019-02-19T04:42:44.130Z,4.38
2019-02-19T04:43:50.078Z,4.35
2019-02-19T04:44:56.021Z,4.37
2019-02-19T04:46:01.953Z,4.58
2019-02-19T04:47:07.863Z,4.74
2019-02-19T04:48:13.836Z,4.63
2019-02-19T04:49:19.766Z,4.44
2019-02-19T04:50:25.696Z,4.72
2019-02-19T04:51:31.632Z,4.80
2019-02-19T04:52:37.590Z,4.89
2019-02-19T04:53:43.503Z,4.88
2019-02-19T04:54:49.426Z,4.66
2019-02-19T04:55:55.371Z,4.53
2019-02-19T04:57:01.289Z,4.26
2019-02-19T04:58:07.247Z,4.32
2019-02-19T04:59:13.203Z,4.35
2019-02-19T05:00:19.121Z,4.33
2019-02-19T05:01:25.050Z,4.25
2019-02-19T05:02:30.932Z,4.01
2019-02-19T05:03:36.865Z,3.80
2019-02-19T05:04:42.857Z,3.51
2019-02-19T05:05:48.738Z,3.28
2019-02-19T05:06:54.707Z,3.17
2019-02-19T05:08:00.568Z,2.97
2019-02-19T05:09:05.552Z,2.87
2019-02-19T05:10:10.897Z,2.78
2019-02-19T05:11:16.798Z,2.59
2019-02-19T05:12:22.675Z,2.52
2019-02-19T05:13:28.558Z,2.44
2019-02-19T05:14:34.527Z,2.37
2019-02-19T05:15:40.436Z,2.42
2019-02-19T05:16:46.309Z,2.50
2019-02-19T05:17:52.193Z,2.50
2019-02-19T05:18:58.105Z,2.69
2019-02-19T05:20:03.638Z,2.83
2019-02-19T05:21:09.555Z,2.79
2019-02-19T05:22:15.494Z,2.64
2019-02-19T05:23:21.405Z,2.54
2019-02-19T05:24:27.322Z,2.60
2019-02-19T05:25:33.247Z,2.53
2019-02-19T05:26:39.181Z,2.55
2019-02-19T05:27:45.079Z,2.39
2019-02-19T05:28:50.955Z,2.28
2019-02-19T05:29:56.924Z,2.15
2019-02-19T05:31:02.817Z,2.12
2019-02-19T05:32:08.713Z,2.09
2019-02-19T05:33:14.619Z,2.10
2019-02-19T05:34:20.563Z,1.96
2019-02-19T05:35:26.466Z,2.01
2019-02-19T05:36:32.404Z,1.94
2019-02-19T05:37:38.342Z,1.93
2019-02-19T05:38:44.258Z,1.94
2019-02-19T05:39:50.160Z,1.98
2019-02-19T05:40:56.058Z,1.90
2019-02-19T05:42:01.941Z,1.90
2019-02-19T05:43:07.869Z,1.87
2019-02-19T05:44:13.778Z,2.13
2019-02-19T05:45:20.454Z,2.14
2019-02-19T05:46:26.463Z,2.01
2019-02-19T05:47:32.403Z,2.02
2019-02-19T05:48:38.305Z,1.96
2019-02-19T05:49:44.245Z,1.93
2019-02-19T05:50:50.124Z,1.73
2019-02-19T05:51:56.038Z,1.77
2019-02-19T05:53:01.935Z,1.74
2019-02-19T05:54:07.818Z,1.61
2019-02-19T05:55:13.761Z,1.55
2019-02-19T05:56:19.672Z,1.55
2019-02-19T05:57:25.565Z,1.51
2019-02-19T05:58:31.504Z,1.49
2019-02-19T05:59:37.426Z,1.45
2019-02-19T06:00:43.040Z,1.48
2019-02-19T06:01:48.573Z,1.45
2019-02-19T06:02:54.498Z,1.42
2019-02-19T06:04:00.411Z,1.43
2019-02-19T06:05:05.907Z,1.47
2019-02-19T06:06:11.563Z,1.54
2019-02-19T06:07:17.543Z,1.61
2019-02-19T06:08:23.527Z,1.53
2019-02-19T06:09:29.574Z,1.49
2019-02-19T06:10:35.546Z,1.65
2019-02-19T06:11:41.411Z,1.55
2019-02-19T06:12:47.282Z,1.48
2019-02-19T06:13:53.179Z,1.51
2019-02-19T06:14:59.109Z,1.59
2019-02-19T06:16:04.998Z,1.57
2019-02-19T06:17:10.898Z,1.65
2019-02-19T06:18:16.773Z,1.56
2019-02-19T06:19:22.710Z,1.55
2019-02-19T06:20:28.591Z,1.51
2019-02-19T06:21:34.468Z,1.68
2019-02-19T06:22:40.379Z,1.79
2019-02-19T06:23:46.323Z,1.76
2019-02-19T06:24:51.844Z,1.78
2019-02-19T06:25:57.834Z,1.87
2019-02-19T06:27:03.745Z,1.95
2019-02-19T06:28:09.620Z,1.88
2019-02-19T06:29:15.538Z,1.85
2019-02-19T06:30:21.512Z,1.73
2019-02-19T06:31:27.427Z,1.71
2019-02-19T06:32:33.304Z,1.77
2019-02-19T06:33:39.259Z,1.80
2019-02-19T06:34:45.181Z,1.83
2019-02-19T06:35:51.132Z,2.01
2019-02-19T06:36:57.009Z,1.95
2019-02-19T06:38:02.965Z,1.98
2019-02-19T06:39:08.942Z,2.14
2019-02-19T06:40:23.044Z,2.28
2019-02-19T06:41:28.933Z,2.71
2019-02-19T06:42:34.814Z,3.13
2019-02-19T06:43:40.743Z,3.26
2019-02-19T06:44:46.615Z,3.53
2019-02-19T06:45:52.517Z,3.81
2019-02-19T06:47:06.515Z,3.93
2019-02-19T06:48:04.055Z,4.13
2019-02-19T06:49:09.947Z,4.44
2019-02-19T06:50:15.464Z,4.51
2019-02-19T06:51:21.404Z,4.84
2019-02-19T06:52:27.290Z,5.04
2019-02-19T06:53:33.228Z,5.19
2019-02-19T06:54:39.225Z,5.31
2019-02-19T06:55:45.121Z,5.37
2019-02-19T06:56:50.990Z,5.49
2019-02-19T06:57:56.905Z,5.56
2019-02-19T06:59:02.808Z,5.58
2019-02-19T07:00:08.644Z,5.61
2019-02-19T07:01:14.544Z,5.79
2019-02-19T07:02:20.202Z,5.78
2019-02-19T07:03:26.845Z,5.83
2019-02-19T07:04:32.481Z,5.93
2019-02-19T07:05:38.436Z,6.03
2019-02-19T07:06:44.326Z,6.15
2019-02-19T07:07:49.964Z,6.13
2019-02-19T07:08:55.890Z,6.13
2019-02-19T07:10:01.849Z,6.15
2019-02-19T07:11:07.796Z,6.24
2019-02-19T07:12:13.662Z,6.15
2019-02-19T07:13:19.553Z,6.24
2019-02-19T07:14:25.456Z,6.35
2019-02-19T07:15:31.379Z,6.36
2019-02-19T07:16:37.309Z,6.52
2019-02-19T07:17:43.196Z,6.54
2019-02-19T07:18:49.113Z,6.58
2019-02-19T07:19:55.001Z,6.59
2019-02-19T07:21:00.838Z,6.64
2019-02-19T07:22:06.729Z,6.50
2019-02-19T07:23:12.624Z,6.60
2019-02-19T07:24:18.529Z,6.72
2019-02-19T07:25:24.102Z,6.65
2019-02-19T07:26:30.075Z,6.74
2019-02-19T07:27:35.948Z,6.62
2019-02-19T07:28:41.877Z,6.72
2019-02-19T07:29:47.763Z,6.79
2019-02-19T07:30:53.692Z,6.91
2019-02-19T07:31:59.634Z,6.99
2019-02-19T07:33:05.549Z,6.83
2019-02-19T07:34:11.431Z,6.79
2019-02-19T07:35:17.403Z,6.86
2019-02-19T07:36:23.320Z,6.83
2019-02-19T07:37:29.222Z,6.90
2019-02-19T07:38:35.126Z,6.84
2019-02-19T07:39:41.165Z,6.71
2019-02-19T07:40:47.076Z,6.76
2019-02-19T07:41:52.990Z,6.76
2019-02-19T07:42:58.906Z,6.94
2019-02-19T07:44:04.853Z,6.93
2019-02-19T07:45:10.771Z,6.88
2019-02-19T07:46:16.690Z,6.85
2019-02-19T07:47:24.667Z,6.83
2019-02-19T07:48:28.537Z,6.90
2019-02-19T07:49:34.436Z,7.00
2019-02-19T07:50:40.311Z,6.98
2019-02-19T07:51:47.260Z,6.90
2019-02-19T07:52:53.689Z,6.97
2019-02-19T07:53:59.613Z,6.79
2019-02-19T07:55:04.862Z,6.80
2019-02-19T07:56:10.779Z,6.85
2019-02-19T07:57:16.698Z,7.01
2019-02-19T07:58:22.617Z,6.81
2019-02-19T07:59:28.491Z,6.99
2019-02-19T08:00:37.368Z,6.94
2019-02-19T08:01:43.298Z,7.00
2019-02-19T08:02:49.192Z,7.01
2019-02-19T08:03:55.128Z,7.01
2019-02-19T08:05:01.021Z,6.99
2019-02-19T08:06:06.983Z,7.01
2019-02-19T08:07:12.892Z,7.00
2019-02-19T08:08:18.839Z,6.96
2019-02-19T08:09:24.747Z,6.92
2019-02-19T08:10:30.646Z,6.90
2019-02-19T08:11:36.663Z,6.84
2019-02-19T08:12:43.093Z,6.90
2019-02-19T08:13:49.454Z,7.01
2019-02-19T08:14:55.377Z,7.08
2019-02-19T08:16:01.271Z,6.98
2019-02-19T08:17:07.188Z,7.05
2019-02-19T08:18:13.070Z,7.20
2019-02-19T08:19:19.006Z,7.19
2019-02-19T08:20:24.892Z,7.26
2019-02-19T08:21:30.806Z,7.25
2019-02-19T08:22:36.731Z,7.41
2019-02-19T08:23:42.603Z,7.42
2019-02-19T08:24:48.481Z,7.39
2019-02-19T08:25:54.369Z,7.48
2019-02-19T08:27:00.330Z,7.55
2019-02-19T08:28:05.926Z,7.58
2019-02-19T08:29:13.984Z,7.70
2019-02-19T08:30:17.750Z,7.65
2019-02-19T08:31:23.626Z,7.70
2019-02-19T08:32:29.555Z,7.71
2019-02-19T08:33:35.466Z,7.67
2019-02-19T08:34:41.154Z,7.82
2019-02-19T08:35:47.056Z,7.73
2019-02-19T08:36:53.065Z,7.79
2019-02-19T08:37:59.027Z,7.84
2019-02-19T08:39:04.009Z,7.94
2019-02-19T08:40:09.245Z,8.01
2019-02-19T08:41:15.127Z,8.01
2019-02-19T08:42:21.069Z,8.00
2019-02-19T08:43:27.045Z,7.92
2019-02-19T08:44:32.948Z,7.93
2019-02-19T08:45:38.850Z,8.06
2019-02-19T08:46:44.732Z,8.11
2019-02-19T08:47:50.652Z,8.00
2019-02-19T08:48:56.551Z,7.94
2019-02-19T08:50:02.311Z,8.08
2019-02-19T08:51:07.871Z,8.17
2019-02-19T08:52:13.828Z,8.10
2019-02-19T08:53:19.715Z,8.11
2019-02-19T08:54:25.581Z,8.18
2019-02-19T08:55:32.084Z,8.23
2019-02-19T08:56:38.539Z,8.07
2019-02-19T08:57:44.443Z,8.21
2019-02-19T08:58:51.208Z,8.24
2019-02-19T08:59:57.111Z,8.29
2019-02-19T09:01:03.136Z,8.37
2019-02-19T09:02:08.772Z,8.42
2019-02-19T09:03:14.657Z,8.27
2019-02-19T09:04:20.586Z,8.39
2019-02-19T09:05:26.458Z,8.44
2019-02-19T09:06:32.379Z,8.47
2019-02-19T09:07:38.288Z,8.49
2019-02-19T09:08:44.191Z,8.49
2019-02-19T09:09:50.152Z,8.55
2019-02-19T09:10:56.071Z,8.58
2019-02-19T09:12:01.979Z,8.62
2019-02-19T09:13:07.932Z,8.61
2019-02-19T09:14:13.899Z,8.72
2019-02-19T09:15:19.839Z,8.80
2019-02-19T09:16:25.887Z,8.76
2019-02-19T09:17:31.956Z,8.87
2019-02-19T09:18:37.882Z,8.93
2019-02-19T09:19:43.804Z,8.97
2019-02-19T09:20:49.745Z,8.87
2019-02-19T09:21:55.995Z,8.93
2019-02-19T09:23:02.533Z,8.90
2019-02-19T09:24:09.758Z,9.06
2019-02-19T09:25:14.376Z,9.19
2019-02-19T09:26:19.972Z,9.30
2019-02-19T09:27:25.956Z,9.35
2019-02-19T09:28:31.941Z,9.35
2019-02-19T09:29:37.807Z,9.43
2019-02-19T09:30:43.755Z,9.59
2019-02-19T09:31:49.693Z,9.55
2019-02-19T09:32:55.815Z,9.52
2019-02-19T09:34:01.699Z,9.63
2019-02-19T09:35:06.927Z,9.66
2019-02-19T09:36:12.940Z,9.50
2019-02-19T09:37:18.919Z,9.52
2019-02-19T09:38:24.968Z,9.40
2019-02-19T09:39:30.870Z,9.28
2019-02-19T09:40:36.797Z,9.21
2019-02-19T09:41:42.362Z,9.31
2019-02-19T09:42:48.267Z,9.34
2019-02-19T09:43:54.167Z,9.41
2019-02-19T09:45:00.281Z,9.41
2019-02-19T09:46:06.007Z,9.27
2019-02-19T09:47:11.869Z,9.39
2019-02-19T09:48:17.790Z,9.28
2019-02-19T09:49:23.410Z,9.26
2019-02-19T09:50:29.327Z,9.11
2019-02-19T09:51:35.251Z,9.06
2019-02-19T09:52:41.149Z,9.06
2019-02-19T09:53:47.089Z,9.00
2019-02-19T09:54:52.975Z,9.07
2019-02-19T09:55:58.859Z,9.05
2019-02-19T09:57:04.388Z,9.14
2019-02-19T09:58:10.460Z,9.15
2019-02-19T09:59:16.471Z,9.17
2019-02-19T10:00:22.351Z,9.19
2019-02-19T10:01:28.539Z,9.27
2019-02-19T10:02:34.273Z,9.26
2019-02-19T10:03:40.204Z,9.19
2019-02-19T10:04:46.100Z,9.20
2019-02-19T10:05:52.057Z,9.09
2019-02-19T10:06:58.026Z,9.22
2019-02-19T10:08:03.971Z,9.17
2019-02-19T10:09:09.653Z,9.17
2019-02-19T10:10:17.528Z,9.21
2019-02-19T10:11:23.425Z,9.27
2019-02-19T10:12:29.334Z,9.31
2019-02-19T10:13:35.329Z,9.21
2019-02-19T10:14:41.249Z,9.24
2019-02-19T10:15:47.149Z,9.22
2019-02-19T10:16:53.050Z,9.27
2019-02-19T10:17:58.629Z,9.27
2019-02-19T10:19:04.533Z,9.31
2019-02-19T10:20:10.557Z,9.38
2019-02-19T10:21:17.021Z,9.34
2019-02-19T10:22:23.433Z,9.06
2019-02-19T10:23:29.655Z,9.23
2019-02-19T10:24:35.545Z,9.17
2019-02-19T10:25:41.451Z,9.14
2019-02-19T10:26:47.329Z,9.08
2019-02-19T10:27:53.369Z,9.01
2019-02-19T10:28:59.277Z,9.07
2019-02-19T10:30:07.374Z,9.08
2019-02-19T10:31:13.274Z,9.06
2019-02-19T10:32:19.145Z,8.97
2019-02-19T10:33:25.086Z,8.92
2019-02-19T10:34:30.993Z,8.91
2019-02-19T10:35:36.951Z,9.01
2019-02-19T10:36:42.880Z,8.99
2019-02-19T10:37:48.773Z,8.86
2019-02-19T10:38:54.680Z,8.76
2019-02-19T10:40:00.647Z,8.85
2019-02-19T10:41:07.416Z,8.89
2019-02-19T10:42:13.917Z,8.84
2019-02-19T10:43:19.900Z,8.80
2019-02-19T10:44:25.805Z,8.79
2019-02-19T10:45:31.733Z,8.83
2019-02-19T10:46:37.339Z,8.88
2019-02-19T10:47:43.268Z,8.98
2019-02-19T10:48:49.244Z,8.97
2019-02-19T10:49:55.226Z,9.06
2019-02-19T10:51:01.144Z,8.91
2019-02-19T10:52:07.034Z,9.03
2019-02-19T10:53:12.948Z,8.84
2019-02-19T10:54:18.861Z,8.96
2019-02-19T10:55:24.786Z,8.92
2019-02-19T10:56:30.650Z,8.91
2019-02-19T10:57:36.556Z,8.88
2019-02-19T10:58:42.493Z,8.90
2019-02-19T10:59:48.401Z,8.98
2019-02-19T11:00:54.304Z,9.10
2019-02-19T11:02:00.232Z,8.99
2019-02-19T11:03:06.128Z,8.81
2019-02-19T11:04:12.592Z,8.80
2019-02-19T11:05:18.526Z,8.96
2019-02-19T11:06:24.440Z,8.93
2019-02-19T11:07:30.349Z,9.01
2019-02-19T11:08:36.293Z,8.98
2019-02-19T11:09:42.203Z,8.79
2019-02-19T11:10:48.152Z,8.84
2019-02-19T11:11:54.083Z,8.96
2019-02-19T11:12:59.953Z,9.05
2019-02-19T11:14:05.541Z,8.97
2019-02-19T11:15:11.510Z,8.86
2019-02-19T11:16:17.463Z,8.78
2019-02-19T11:17:23.344Z,8.87
2019-02-19T11:18:29.266Z,8.93
2019-02-19T11:19:35.213Z,8.87
2019-02-19T11:20:41.156Z,8.86
2019-02-19T11:21:47.133Z,8.91
2019-02-19T11:22:53.036Z,8.88
2019-02-19T11:24:00.848Z,9.00
2019-02-19T11:25:06.659Z,8.74
2019-02-19T11:26:12.647Z,8.67
2019-02-19T11:27:18.281Z,8.65
2019-02-19T11:28:23.880Z,8.69
2019-02-19T11:29:29.808Z,8.80
2019-02-19T11:30:35.739Z,8.87
2019-02-19T11:31:41.627Z,9.04
2019-02-19T11:32:47.186Z,8.87
2019-02-19T11:33:53.119Z,8.92
2019-02-19T11:34:58.998Z,8.88
2019-02-19T11:36:04.170Z,8.89
2019-02-19T11:37:10.054Z,8.99
2019-02-19T11:38:15.967Z,8.94
2019-02-19T11:39:22.632Z,8.86
2019-02-19T11:40:27.509Z,8.94
2019-02-19T11:41:33.475Z,8.95
2019-02-19T11:42:39.343Z,8.79
2019-02-19T11:43:45.289Z,8.83
2019-02-19T11:44:51.301Z,8.92
2019-02-19T11:45:56.879Z,8.94
2019-02-19T11:47:02.789Z,9.13
2019-02-19T11:48:08.675Z,9.21
2019-02-19T11:49:14.686Z,8.87
2019-02-19T11:50:20.591Z,8.96
2019-02-19T11:51:26.489Z,8.93
2019-02-19T11:52:32.402Z,8.94
2019-02-19T11:53:38.350Z,8.97
2019-02-19T11:54:44.331Z,8.91
2019-02-19T11:55:50.262Z,8.92
2019-02-19T11:56:56.167Z,8.89
2019-02-19T11:58:02.048Z,8.83
2019-02-19T11:59:08.747Z,8.84
2019-02-19T12:00:13.801Z,8.89
2019-02-19T12:01:19.747Z,8.93
2019-02-19T12:02:32.765Z,8.81
2019-02-19T12:03:31.309Z,8.87
2019-02-19T12:04:37.262Z,8.92
2019-02-19T12:05:43.139Z,9.00
2019-02-19T12:06:49.495Z,8.99
2019-02-19T12:07:55.432Z,8.92
2019-02-19T12:09:01.364Z,8.88
2019-02-19T12:10:07.203Z,8.97
2019-02-19T12:11:16.223Z,8.71
2019-02-19T12:12:22.197Z,8.72
2019-02-19T12:13:28.116Z,8.70
2019-02-19T12:14:34.129Z,8.68
2019-02-19T12:15:40.099Z,8.73
2019-02-19T12:16:45.995Z,8.76
2019-02-19T12:17:51.909Z,8.67
2019-02-19T12:18:57.863Z,8.57
2019-02-19T12:20:03.428Z,8.68
2019-02-19T12:21:10.607Z,8.72
2019-02-19T12:22:14.877Z,8.73
2019-02-19T12:23:20.470Z,8.74
2019-02-19T12:24:26.395Z,8.92
2019-02-19T12:25:32.280Z,8.90
2019-02-19T12:26:38.173Z,9.02
2019-02-19T12:27:44.682Z,8.88
2019-02-19T12:28:50.745Z,8.91
2019-02-19T12:29:56.668Z,8.78
2019-02-19T12:31:02.580Z,8.88
2019-02-19T12:32:08.520Z,9.07
2019-02-19T12:33:14.426Z,9.02
2019-02-19T12:34:20.376Z,8.82
2019-02-19T12:35:26.302Z,8.95
2019-02-19T12:36:31.962Z,9.02
2019-02-19T12:37:37.501Z,8.84
2019-02-19T12:38:45.434Z,8.77
2019-02-19T12:39:51.421Z,8.89
2019-02-19T12:40:57.124Z,8.92
2019-02-19T12:42:03.000Z,8.80
2019-02-19T12:43:08.887Z,8.99
2019-02-19T12:44:14.811Z,9.08
2019-02-19T12:45:20.812Z,9.05
2019-02-19T12:46:26.736Z,9.00
2019-02-19T12:47:32.598Z,8.89
2019-02-19T12:48:38.649Z,8.89
2019-02-19T12:49:44.794Z,9.02
2019-02-19T12:50:50.664Z,9.15
2019-02-19T12:51:56.608Z,8.97
2019-02-19T12:53:02.503Z,9.04
2019-02-19T12:54:08.517Z,9.08
2019-02-19T12:55:14.501Z,9.16
2019-02-19T12:56:20.450Z,9.33
2019-02-19T12:57:26.332Z,9.52
2019-02-19T12:58:32.323Z,9.39
2019-02-19T12:59:38.248Z,9.40
2019-02-19T13:00:44.187Z,9.39
2019-02-19T13:01:50.093Z,9.55
2019-02-19T13:02:55.606Z,9.54
2019-02-19T13:04:01.586Z,9.62
2019-02-19T13:05:06.852Z,9.54
2019-02-19T13:06:12.775Z,9.53
2019-02-19T13:07:18.693Z,9.38
2019-02-19T13:08:24.632Z,9.40
2019-02-19T13:09:30.585Z,9.33
2019-02-19T13:10:36.478Z,9.31
2019-02-19T13:11:42.404Z,9.39
2019-02-19T13:12:49.141Z,9.63
2019-02-19T13:13:54.222Z,9.68
2019-02-19T13:15:00.301Z,9.48
2019-02-19T13:16:06.126Z,9.47
2019-02-19T13:17:12.028Z,9.61
2019-02-19T13:18:17.940Z,9.81
2019-02-19T13:19:23.824Z,9.87
2019-02-19T13:20:29.734Z,9.85
2019-02-19T13:21:35.618Z,9.77
2019-02-19T13:22:41.554Z,9.62
2019-02-19T13:23:48.752Z,9.78
2019-02-19T13:24:54.681Z,9.68
2019-02-19T13:26:00.577Z,9.81
2019-02-19T13:27:06.454Z,9.71
2019-02-19T13:28:12.343Z,9.53
2019-02-19T13:29:18.270Z,9.62
2019-02-19T13:30:23.913Z,9.69
2019-02-19T13:31:29.854Z,9.59
2019-02-19T13:32:35.734Z,9.63
2019-02-19T13:33:41.371Z,9.63
2019-02-19T13:34:47.338Z,9.64
2019-02-19T13:35:53.250Z,9.58
2019-02-19T13:36:59.230Z,9.67
2019-02-19T13:38:05.150Z,9.86
2019-02-19T13:39:11.081Z,9.85
2019-02-19T13:40:17.731Z,9.85
2019-02-19T13:41:23.675Z,9.94
2019-02-19T13:42:29.604Z,9.93
2019-02-19T13:43:35.523Z,9.92
2019-02-19T13:44:41.493Z,9.95
2019-02-19T13:45:47.419Z,10.12
2019-02-19T13:46:53.361Z,10.39
2019-02-19T13:48:05.718Z,10.47
2019-02-19T13:49:12.002Z,10.74
2019-02-19T13:50:14.310Z,10.89
2019-02-19T13:51:20.210Z,10.95
2019-02-19T13:52:26.088Z,11.13
2019-02-19T13:53:32.126Z,11.11
2019-02-19T13:54:38.065Z,11.10
2019-02-19T13:55:44.602Z,11.29
2019-02-19T13:56:50.507Z,11.35
2019-02-19T13:57:57.519Z,11.37
2019-02-19T13:59:02.441Z,11.13
2019-02-19T14:00:07.453Z,11.11
2019-02-19T14:01:13.364Z,11.21
2019-02-19T14:02:19.295Z,11.24
2019-02-19T14:03:25.297Z,11.31
2019-02-19T14:04:31.268Z,11.40
2019-02-19T14:05:36.884Z,11.07
2019-02-19T14:06:42.826Z,11.11
2019-02-19T14:07:48.398Z,10.91
2019-02-19T14:08:54.343Z,11.13
2019-02-19T14:10:00.294Z,11.27
2019-02-19T14:11:06.001Z,11.22
2019-02-19T14:12:14.029Z,11.41
2019-02-19T14:13:20.310Z,11.52
2019-02-19T14:14:25.995Z,11.49
2019-02-19T14:15:34.235Z,11.49
2019-02-19T14:16:40.704Z,11.44
2019-02-19T14:17:47.496Z,11.33
2019-02-19T14:18:53.147Z,11.42
2019-02-19T14:19:58.870Z,11.69
2019-02-19T14:21:10.311Z,11.55
2019-02-19T14:22:21.683Z,11.51
2019-02-19T14:23:33.364Z,11.47
2019-02-19T14:26:20.968Z,11.54
2019-02-19T14:27:28.401Z,11.73
2019-02-19T14:30:24.424Z,11.66
2019-02-19T14:32:01.208Z,11.69
2019-02-19T14:33:36.076Z,11.62
2019-02-19T14:34:57.883Z,11.59
2019-02-19T14:36:07.181Z,11.72
2019-02-19T14:37:18.458Z,11.65
2019-02-19T14:38:29.805Z,11.50
2019-02-19T14:51:39.921Z,11.59
2019-02-19T14:52:51.160Z,11.65